sensor_id;sensor_type;location;lat;lon;timestamp;temperature;humidity
74513;DHT22;62992;52.052;8.550;2023-11-19T00:00:16;8.40;99.90
74513;DHT22;62992;52.052;8.550;2023-11-19T00:03:00;8.50;99.90
74513;DHT22;62992;52.052;8.550;2023-11-19T00:05:45;8.50;99.90
74513;DHT22;62992;52.052;8.550;2023-11-19T00:08:29;8.60;99.90
74513;DHT22;62992;52.052;8.550;2023-11-19T00:11:13;8.60;99.90
74513;DHT22;62992;52.052;8.550;2023-11-19T00:13:59;8.60;99.90
74513;DHT22;62992;52.052;8.550;2023-11-19T00:16:43;8.60;99.90
74513;DHT22;62992;52.052;8.550;2023-11-19T00:19:28;8.60;99.90
74513;DHT22;62992;52.052;8.550;2023-11-19T00:22:12;8.60;99.90
74513;DHT22;62992;52.052;8.550;2023-11-19T00:24:56;8.70;99.90
74513;DHT22;62992;52.052;8.550;2023-11-19T00:27:40;8.70;99.90
74513;DHT22;62992;52.052;8.550;2023-11-19T00:30:28;8.70;99.90
74513;DHT22;62992;52.052;8.550;2023-11-19T00:33:13;8.70;99.90
74513;DHT22;62992;52.052;8.550;2023-11-19T00:35:57;8.70;99.90
74513;DHT22;62992;52.052;8.550;2023-11-19T00:38:41;8.70;99.90
74513;DHT22;62992;52.052;8.550;2023-11-19T00:41:25;8.70;99.90
74513;DHT22;62992;52.052;8.550;2023-11-19T00:44:09;8.80;99.90
74513;DHT22;62992;52.052;8.550;2023-11-19T00:46:54;8.80;99.90
74513;DHT22;62992;52.052;8.550;2023-11-19T00:49:38;8.80;99.90
74513;DHT22;62992;52.052;8.550;2023-11-19T00:52:22;8.80;99.90
74513;DHT22;62992;52.052;8.550;2023-11-19T00:55:06;8.80;99.90
74513;DHT22;62992;52.052;8.550;2023-11-19T00:57:50;8.90;99.90
74513;DHT22;62992;52.052;8.550;2023-11-19T01:00:35;8.90;99.90
74513;DHT22;62992;52.052;8.550;2023-11-19T01:03:19;9.00;99.90
74513;DHT22;62992;52.052;8.550;2023-11-19T01:06:03;9.00;99.90
74513;DHT22;62992;52.052;8.550;2023-11-19T01:08:48;9.10;99.90
74513;DHT22;62992;52.052;8.550;2023-11-19T01:11:32;9.00;99.90
74513;DHT22;62992;52.052;8.550;2023-11-19T01:14:17;9.00;99.90
74513;DHT22;62992;52.052;8.550;2023-11-19T01:17:01;9.10;99.90
74513;DHT22;62992;52.052;8.550;2023-11-19T01:19:45;9.20;99.90
74513;DHT22;62992;52.052;8.550;2023-11-19T01:22:30;9.20;99.90
74513;DHT22;62992;52.052;8.550;2023-11-19T01:25:14;9.20;99.90
74513;DHT22;62992;52.052;8.550;2023-11-19T01:27:58;9.20;99.90
74513;DHT22;62992;52.052;8.550;2023-11-19T01:30:42;9.30;99.90
74513;DHT22;62992;52.052;8.550;2023-11-19T01:33:27;9.20;99.90
74513;DHT22;62992;52.052;8.550;2023-11-19T01:36:14;9.30;99.90
74513;DHT22;62992;52.052;8.550;2023-11-19T01:38:58;9.30;99.90
74513;DHT22;62992;52.052;8.550;2023-11-19T01:41:43;9.30;99.90
74513;DHT22;62992;52.052;8.550;2023-11-19T01:44:27;9.30;99.90
74513;DHT22;62992;52.052;8.550;2023-11-19T01:47:11;9.40;99.90
74513;DHT22;62992;52.052;8.550;2023-11-19T01:49:56;9.50;99.90
74513;DHT22;62992;52.052;8.550;2023-11-19T01:52:40;9.50;99.90
74513;DHT22;62992;52.052;8.550;2023-11-19T01:55:25;9.50;99.90
74513;DHT22;62992;52.052;8.550;2023-11-19T01:58:10;9.50;99.90
74513;DHT22;62992;52.052;8.550;2023-11-19T02:00:56;9.50;99.90
74513;DHT22;62992;52.052;8.550;2023-11-19T02:03:40;9.60;99.90
74513;DHT22;62992;52.052;8.550;2023-11-19T02:06:25;9.60;99.90
74513;DHT22;62992;52.052;8.550;2023-11-19T02:09:09;9.60;99.90
74513;DHT22;62992;52.052;8.550;2023-11-19T02:11:54;9.60;99.90
74513;DHT22;62992;52.052;8.550;2023-11-19T02:14:38;9.70;99.90
74513;DHT22;62992;52.052;8.550;2023-11-19T02:17:29;9.70;99.90
74513;DHT22;62992;52.052;8.550;2023-11-19T02:20:15;9.70;99.90
74513;DHT22;62992;52.052;8.550;2023-11-19T02:22:59;9.70;99.90
74513;DHT22;62992;52.052;8.550;2023-11-19T02:25:46;9.80;99.90
74513;DHT22;62992;52.052;8.550;2023-11-19T02:28:33;9.80;99.90
74513;DHT22;62992;52.052;8.550;2023-11-19T02:31:17;9.80;99.90
74513;DHT22;62992;52.052;8.550;2023-11-19T02:34:03;9.80;99.90
74513;DHT22;62992;52.052;8.550;2023-11-19T02:36:47;9.90;99.90
74513;DHT22;62992;52.052;8.550;2023-11-19T02:39:31;10.00;99.90
74513;DHT22;62992;52.052;8.550;2023-11-19T02:42:15;10.00;99.90
74513;DHT22;62992;52.052;8.550;2023-11-19T02:45:00;10.00;99.90
74513;DHT22;62992;52.052;8.550;2023-11-19T02:47:44;10.10;99.90
74513;DHT22;62992;52.052;8.550;2023-11-19T02:50:28;10.10;99.90
74513;DHT22;62992;52.052;8.550;2023-11-19T02:53:12;10.10;99.90
74513;DHT22;62992;52.052;8.550;2023-11-19T02:55:57;10.10;99.90
74513;DHT22;62992;52.052;8.550;2023-11-19T02:58:55;10.10;99.90
74513;DHT22;62992;52.052;8.550;2023-11-19T03:01:39;10.10;99.90
74513;DHT22;62992;52.052;8.550;2023-11-19T03:04:27;10.10;99.90
74513;DHT22;62992;52.052;8.550;2023-11-19T03:07:12;10.10;99.90
74513;DHT22;62992;52.052;8.550;2023-11-19T03:09:57;10.20;99.90
74513;DHT22;62992;52.052;8.550;2023-11-19T03:12:42;10.20;99.90
74513;DHT22;62992;52.052;8.550;2023-11-19T03:15:26;10.30;99.90
74513;DHT22;62992;52.052;8.550;2023-11-19T03:18:10;10.50;99.90
74513;DHT22;62992;52.052;8.550;2023-11-19T03:20:54;10.50;99.90
74513;DHT22;62992;52.052;8.550;2023-11-19T03:23:38;10.50;99.90
74513;DHT22;62992;52.052;8.550;2023-11-19T03:26:24;10.50;99.90
74513;DHT22;62992;52.052;8.550;2023-11-19T03:29:08;10.50;99.90
74513;DHT22;62992;52.052;8.550;2023-11-19T03:31:52;10.50;99.90
74513;DHT22;62992;52.052;8.550;2023-11-19T03:34:36;10.60;99.90
74513;DHT22;62992;52.052;8.550;2023-11-19T03:37:21;10.60;99.90
74513;DHT22;62992;52.052;8.550;2023-11-19T03:40:05;10.70;99.90
74513;DHT22;62992;52.052;8.550;2023-11-19T03:42:49;10.80;99.90
74513;DHT22;62992;52.052;8.550;2023-11-19T03:45:34;10.90;99.90
74513;DHT22;62992;52.052;8.550;2023-11-19T03:48:18;11.00;99.90
74513;DHT22;62992;52.052;8.550;2023-11-19T03:51:03;10.90;99.90
74513;DHT22;62992;52.052;8.550;2023-11-19T03:53:47;11.00;99.90
74513;DHT22;62992;52.052;8.550;2023-11-19T03:56:31;11.00;99.90
74513;DHT22;62992;52.052;8.550;2023-11-19T03:59:15;11.00;99.90
74513;DHT22;62992;52.052;8.550;2023-11-19T04:01:59;11.00;99.90
74513;DHT22;62992;52.052;8.550;2023-11-19T04:04:44;11.00;99.90
74513;DHT22;62992;52.052;8.550;2023-11-19T04:07:28;11.10;99.90
74513;DHT22;62992;52.052;8.550;2023-11-19T04:10:13;11.10;99.90
74513;DHT22;62992;52.052;8.550;2023-11-19T04:13:00;11.10;99.90
74513;DHT22;62992;52.052;8.550;2023-11-19T04:15:45;11.10;99.90
74513;DHT22;62992;52.052;8.550;2023-11-19T04:18:29;11.10;99.90
74513;DHT22;62992;52.052;8.550;2023-11-19T04:21:13;11.10;99.90
74513;DHT22;62992;52.052;8.550;2023-11-19T04:23:58;11.20;99.90
74513;DHT22;62992;52.052;8.550;2023-11-19T04:26:42;11.30;99.90
74513;DHT22;62992;52.052;8.550;2023-11-19T04:29:29;11.30;99.90
74513;DHT22;62992;52.052;8.550;2023-11-19T04:32:14;11.30;99.90
74513;DHT22;62992;52.052;8.550;2023-11-19T04:34:59;11.30;99.90
74513;DHT22;62992;52.052;8.550;2023-11-19T04:37:43;11.30;99.90
74513;DHT22;62992;52.052;8.550;2023-11-19T04:40:27;11.30;99.90
74513;DHT22;62992;52.052;8.550;2023-11-19T04:43:11;11.20;99.90
74513;DHT22;62992;52.052;8.550;2023-11-19T04:45:56;11.30;99.90
74513;DHT22;62992;52.052;8.550;2023-11-19T04:48:41;11.20;99.90
74513;DHT22;62992;52.052;8.550;2023-11-19T04:51:25;11.30;99.90
74513;DHT22;62992;52.052;8.550;2023-11-19T04:54:10;11.30;99.90
74513;DHT22;62992;52.052;8.550;2023-11-19T04:56:54;11.30;99.90
74513;DHT22;62992;52.052;8.550;2023-11-19T04:59:38;11.20;99.90
74513;DHT22;62992;52.052;8.550;2023-11-19T05:02:22;11.30;99.90
74513;DHT22;62992;52.052;8.550;2023-11-19T05:05:06;11.20;99.90
74513;DHT22;62992;52.052;8.550;2023-11-19T05:07:51;11.20;99.90
74513;DHT22;62992;52.052;8.550;2023-11-19T05:10:35;11.10;99.90
74513;DHT22;62992;52.052;8.550;2023-11-19T05:13:20;11.20;99.90
74513;DHT22;62992;52.052;8.550;2023-11-19T05:16:04;11.20;99.90
74513;DHT22;62992;52.052;8.550;2023-11-19T05:18:48;11.20;99.90
74513;DHT22;62992;52.052;8.550;2023-11-19T05:21:33;11.20;99.90
74513;DHT22;62992;52.052;8.550;2023-11-19T05:24:18;11.20;99.90
74513;DHT22;62992;52.052;8.550;2023-11-19T05:27:03;11.20;99.90
74513;DHT22;62992;52.052;8.550;2023-11-19T05:29:47;11.20;99.90
74513;DHT22;62992;52.052;8.550;2023-11-19T05:32:31;11.20;99.90
74513;DHT22;62992;52.052;8.550;2023-11-19T05:35:15;11.10;99.90
74513;DHT22;62992;52.052;8.550;2023-11-19T05:37:59;11.10;99.90
74513;DHT22;62992;52.052;8.550;2023-11-19T05:40:44;11.10;99.90
74513;DHT22;62992;52.052;8.550;2023-11-19T05:43:28;11.00;99.90
74513;DHT22;62992;52.052;8.550;2023-11-19T05:46:12;11.00;99.90
74513;DHT22;62992;52.052;8.550;2023-11-19T05:48:57;11.00;99.90
74513;DHT22;62992;52.052;8.550;2023-11-19T05:51:41;11.00;99.90
74513;DHT22;62992;52.052;8.550;2023-11-19T05:54:25;11.00;99.90
74513;DHT22;62992;52.052;8.550;2023-11-19T05:57:10;10.90;99.90
74513;DHT22;62992;52.052;8.550;2023-11-19T05:59:54;10.90;99.90
74513;DHT22;62992;52.052;8.550;2023-11-19T06:02:38;11.00;99.90
74513;DHT22;62992;52.052;8.550;2023-11-19T06:05:23;11.00;99.90
74513;DHT22;62992;52.052;8.550;2023-11-19T06:08:07;11.00;99.90
74513;DHT22;62992;52.052;8.550;2023-11-19T06:10:51;11.00;99.90
74513;DHT22;62992;52.052;8.550;2023-11-19T06:13:35;11.00;99.90
74513;DHT22;62992;52.052;8.550;2023-11-19T06:16:20;10.90;99.90
74513;DHT22;62992;52.052;8.550;2023-11-19T06:19:04;10.90;99.90
74513;DHT22;62992;52.052;8.550;2023-11-19T06:21:48;10.90;99.90
74513;DHT22;62992;52.052;8.550;2023-11-19T06:24:33;10.80;99.90
74513;DHT22;62992;52.052;8.550;2023-11-19T06:27:17;10.70;99.90
74513;DHT22;62992;52.052;8.550;2023-11-19T06:30:02;10.70;99.90
74513;DHT22;62992;52.052;8.550;2023-11-19T06:32:46;10.70;99.90
74513;DHT22;62992;52.052;8.550;2023-11-19T06:35:31;10.60;99.90
74513;DHT22;62992;52.052;8.550;2023-11-19T06:38:20;10.60;99.90
74513;DHT22;62992;52.052;8.550;2023-11-19T06:41:06;10.60;99.90
74513;DHT22;62992;52.052;8.550;2023-11-19T06:43:50;10.60;99.90
74513;DHT22;62992;52.052;8.550;2023-11-19T06:46:35;10.60;99.90
74513;DHT22;62992;52.052;8.550;2023-11-19T06:49:20;10.60;99.90
74513;DHT22;62992;52.052;8.550;2023-11-19T06:52:04;10.70;99.90
74513;DHT22;62992;52.052;8.550;2023-11-19T06:54:48;10.70;99.90
74513;DHT22;62992;52.052;8.550;2023-11-19T06:57:32;10.60;99.90
74513;DHT22;62992;52.052;8.550;2023-11-19T07:00:17;10.60;99.90
74513;DHT22;62992;52.052;8.550;2023-11-19T07:03:02;10.60;99.90
74513;DHT22;62992;52.052;8.550;2023-11-19T07:05:46;10.70;99.90
74513;DHT22;62992;52.052;8.550;2023-11-19T07:08:30;10.60;99.90
74513;DHT22;62992;52.052;8.550;2023-11-19T07:11:14;10.60;99.90
74513;DHT22;62992;52.052;8.550;2023-11-19T07:14:00;10.60;99.90
74513;DHT22;62992;52.052;8.550;2023-11-19T07:16:44;10.60;99.90
74513;DHT22;62992;52.052;8.550;2023-11-19T07:19:30;10.60;99.90
74513;DHT22;62992;52.052;8.550;2023-11-19T07:22:14;10.60;99.90
74513;DHT22;62992;52.052;8.550;2023-11-19T07:24:59;10.70;99.90
74513;DHT22;62992;52.052;8.550;2023-11-19T07:27:43;10.70;99.90
74513;DHT22;62992;52.052;8.550;2023-11-19T07:30:27;10.80;99.90
74513;DHT22;62992;52.052;8.550;2023-11-19T07:33:12;10.70;99.90
74513;DHT22;62992;52.052;8.550;2023-11-19T07:35:57;10.70;99.90
74513;DHT22;62992;52.052;8.550;2023-11-19T07:38:41;10.80;99.90
74513;DHT22;62992;52.052;8.550;2023-11-19T07:41:26;10.70;99.90
74513;DHT22;62992;52.052;8.550;2023-11-19T07:44:11;10.70;99.90
74513;DHT22;62992;52.052;8.550;2023-11-19T07:46:55;10.70;99.90
74513;DHT22;62992;52.052;8.550;2023-11-19T07:49:39;10.80;99.90
74513;DHT22;62992;52.052;8.550;2023-11-19T07:52:23;10.80;99.90
74513;DHT22;62992;52.052;8.550;2023-11-19T07:55:08;10.80;99.90
74513;DHT22;62992;52.052;8.550;2023-11-19T07:57:52;10.80;99.90
74513;DHT22;62992;52.052;8.550;2023-11-19T08:00:36;10.80;99.90
74513;DHT22;62992;52.052;8.550;2023-11-19T08:03:21;10.90;99.90
74513;DHT22;62992;52.052;8.550;2023-11-19T08:06:08;10.80;99.90
74513;DHT22;62992;52.052;8.550;2023-11-19T08:08:52;10.80;99.90
74513;DHT22;62992;52.052;8.550;2023-11-19T08:11:36;10.80;99.90
74513;DHT22;62992;52.052;8.550;2023-11-19T08:14:21;10.80;99.90
74513;DHT22;62992;52.052;8.550;2023-11-19T08:17:05;10.70;99.90
74513;DHT22;62992;52.052;8.550;2023-11-19T08:19:49;10.80;99.90
74513;DHT22;62992;52.052;8.550;2023-11-19T08:22:33;10.90;99.90
74513;DHT22;62992;52.052;8.550;2023-11-19T08:25:17;11.10;99.90
74513;DHT22;62992;52.052;8.550;2023-11-19T08:28:02;11.10;99.90
74513;DHT22;62992;52.052;8.550;2023-11-19T08:30:47;11.10;99.90
74513;DHT22;62992;52.052;8.550;2023-11-19T08:33:32;11.10;99.90
74513;DHT22;62992;52.052;8.550;2023-11-19T08:36:16;11.10;99.90
74513;DHT22;62992;52.052;8.550;2023-11-19T08:39:01;11.30;99.90
74513;DHT22;62992;52.052;8.550;2023-11-19T08:41:45;11.60;99.90
74513;DHT22;62992;52.052;8.550;2023-11-19T08:44:29;11.90;99.90
74513;DHT22;62992;52.052;8.550;2023-11-19T08:47:13;11.60;99.90
74513;DHT22;62992;52.052;8.550;2023-11-19T08:49:57;11.40;99.90
74513;DHT22;62992;52.052;8.550;2023-11-19T08:52:42;11.20;99.90
74513;DHT22;62992;52.052;8.550;2023-11-19T08:55:26;11.20;99.90
74513;DHT22;62992;52.052;8.550;2023-11-19T08:58:10;11.10;99.90
74513;DHT22;62992;52.052;8.550;2023-11-19T09:00:55;11.00;99.90
74513;DHT22;62992;52.052;8.550;2023-11-19T09:03:39;11.10;99.90
74513;DHT22;62992;52.052;8.550;2023-11-19T09:06:24;11.10;99.90
74513;DHT22;62992;52.052;8.550;2023-11-19T09:09:10;11.00;99.90
74513;DHT22;62992;52.052;8.550;2023-11-19T09:11:54;11.10;99.90
74513;DHT22;62992;52.052;8.550;2023-11-19T09:14:38;11.10;99.90
74513;DHT22;62992;52.052;8.550;2023-11-19T09:17:23;11.30;99.90
74513;DHT22;62992;52.052;8.550;2023-11-19T09:20:07;11.40;99.90
74513;DHT22;62992;52.052;8.550;2023-11-19T09:22:52;11.40;99.90
74513;DHT22;62992;52.052;8.550;2023-11-19T09:25:36;11.30;99.90
74513;DHT22;62992;52.052;8.550;2023-11-19T09:28:20;11.30;99.90
74513;DHT22;62992;52.052;8.550;2023-11-19T09:31:15;11.30;99.90
74513;DHT22;62992;52.052;8.550;2023-11-19T09:33:59;11.20;99.90
74513;DHT22;62992;52.052;8.550;2023-11-19T09:36:43;11.20;99.90
74513;DHT22;62992;52.052;8.550;2023-11-19T09:39:28;11.30;99.90
74513;DHT22;62992;52.052;8.550;2023-11-19T09:42:13;11.40;99.90
74513;DHT22;62992;52.052;8.550;2023-11-19T09:44:57;11.30;99.90
74513;DHT22;62992;52.052;8.550;2023-11-19T09:47:45;11.40;99.90
74513;DHT22;62992;52.052;8.550;2023-11-19T09:50:30;11.40;99.90
74513;DHT22;62992;52.052;8.550;2023-11-19T09:53:15;11.40;99.90
74513;DHT22;62992;52.052;8.550;2023-11-19T09:56:02;11.50;99.90
74513;DHT22;62992;52.052;8.550;2023-11-19T09:58:46;11.90;99.90
74513;DHT22;62992;52.052;8.550;2023-11-19T10:01:31;11.80;99.90
74513;DHT22;62992;52.052;8.550;2023-11-19T10:04:16;11.60;99.90
74513;DHT22;62992;52.052;8.550;2023-11-19T10:07:01;11.60;99.90
74513;DHT22;62992;52.052;8.550;2023-11-19T10:09:46;11.40;99.90
74513;DHT22;62992;52.052;8.550;2023-11-19T10:12:30;11.50;99.90
74513;DHT22;62992;52.052;8.550;2023-11-19T10:15:20;11.60;99.90
74513;DHT22;62992;52.052;8.550;2023-11-19T10:18:05;11.60;99.90
74513;DHT22;62992;52.052;8.550;2023-11-19T10:20:49;11.60;99.90
74513;DHT22;62992;52.052;8.550;2023-11-19T10:23:52;11.70;99.90
74513;DHT22;62992;52.052;8.550;2023-11-19T10:26:37;11.80;99.90
74513;DHT22;62992;52.052;8.550;2023-11-19T10:29:21;11.80;99.90
74513;DHT22;62992;52.052;8.550;2023-11-19T10:32:07;11.90;99.90
74513;DHT22;62992;52.052;8.550;2023-11-19T10:34:51;12.30;99.90
74513;DHT22;62992;52.052;8.550;2023-11-19T10:37:35;12.20;99.90
74513;DHT22;62992;52.052;8.550;2023-11-19T10:40:21;12.30;99.90
74513;DHT22;62992;52.052;8.550;2023-11-19T10:43:05;12.30;99.90
74513;DHT22;62992;52.052;8.550;2023-11-19T10:45:51;12.20;99.90
74513;DHT22;62992;52.052;8.550;2023-11-19T10:48:36;12.00;99.90
74513;DHT22;62992;52.052;8.550;2023-11-19T10:51:20;11.90;99.90
74513;DHT22;62992;52.052;8.550;2023-11-19T10:54:06;11.90;99.90
74513;DHT22;62992;52.052;8.550;2023-11-19T10:56:53;12.00;99.90
74513;DHT22;62992;52.052;8.550;2023-11-19T10:59:38;12.10;99.90
74513;DHT22;62992;52.052;8.550;2023-11-19T11:02:24;12.20;99.90
74513;DHT22;62992;52.052;8.550;2023-11-19T11:05:09;12.10;99.90
74513;DHT22;62992;52.052;8.550;2023-11-19T11:07:56;11.90;99.90
74513;DHT22;62992;52.052;8.550;2023-11-19T11:13:40;11.90;99.90
74513;DHT22;62992;52.052;8.550;2023-11-19T11:16:26;11.90;99.90
74513;DHT22;62992;52.052;8.550;2023-11-19T11:19:10;12.00;99.90
74513;DHT22;62992;52.052;8.550;2023-11-19T11:21:56;12.00;99.90
74513;DHT22;62992;52.052;8.550;2023-11-19T11:27:30;11.70;99.90
74513;DHT22;62992;52.052;8.550;2023-11-19T11:33:19;11.50;99.90
74513;DHT22;62992;52.052;8.550;2023-11-19T11:38:53;11.60;99.90
74513;DHT22;62992;52.052;8.550;2023-11-19T11:41:37;11.60;99.90
74513;DHT22;62992;52.052;8.550;2023-11-19T11:44:57;11.60;99.90
74513;DHT22;62992;52.052;8.550;2023-11-19T11:47:26;11.70;99.90
74513;DHT22;62992;52.052;8.550;2023-11-19T11:50:10;11.80;99.90
74513;DHT22;62992;52.052;8.550;2023-11-19T11:58:32;11.80;99.90
74513;DHT22;62992;52.052;8.550;2023-11-19T12:01:18;11.70;99.90
74513;DHT22;62992;52.052;8.550;2023-11-19T12:04:04;11.50;99.90
74513;DHT22;62992;52.052;8.550;2023-11-19T12:07:04;11.30;99.90
74513;DHT22;62992;52.052;8.550;2023-11-19T12:09:53;11.20;99.90
74513;DHT22;62992;52.052;8.550;2023-11-19T12:12:39;11.10;99.90
74513;DHT22;62992;52.052;8.550;2023-11-19T12:15:24;11.00;99.90
74513;DHT22;62992;52.052;8.550;2023-11-19T12:18:08;11.20;99.90
74513;DHT22;62992;52.052;8.550;2023-11-19T12:20:53;11.40;99.90
74513;DHT22;62992;52.052;8.550;2023-11-19T12:23:44;11.40;99.90
74513;DHT22;62992;52.052;8.550;2023-11-19T12:26:34;11.40;99.90
74513;DHT22;62992;52.052;8.550;2023-11-19T12:29:18;11.40;99.90
74513;DHT22;62992;52.052;8.550;2023-11-19T12:32:02;11.50;99.90
74513;DHT22;62992;52.052;8.550;2023-11-19T12:34:47;11.40;99.90
74513;DHT22;62992;52.052;8.550;2023-11-19T12:37:31;11.30;99.90
74513;DHT22;62992;52.052;8.550;2023-11-19T12:40:24;11.40;99.90
74513;DHT22;62992;52.052;8.550;2023-11-19T12:43:09;11.40;99.90
74513;DHT22;62992;52.052;8.550;2023-11-19T12:45:53;11.40;99.90
74513;DHT22;62992;52.052;8.550;2023-11-19T12:48:37;11.50;99.90
74513;DHT22;62992;52.052;8.550;2023-11-19T12:51:30;11.70;99.90
74513;DHT22;62992;52.052;8.550;2023-11-19T12:54:15;11.70;99.90
74513;DHT22;62992;52.052;8.550;2023-11-19T12:56:59;11.60;99.90
74513;DHT22;62992;52.052;8.550;2023-11-19T12:59:43;11.60;99.90
74513;DHT22;62992;52.052;8.550;2023-11-19T13:05:32;11.50;99.90
74513;DHT22;62992;52.052;8.550;2023-11-19T13:08:17;11.60;99.90
74513;DHT22;62992;52.052;8.550;2023-11-19T13:11:01;11.70;99.90
74513;DHT22;62992;52.052;8.550;2023-11-19T13:13:56;11.70;99.90
74513;DHT22;62992;52.052;8.550;2023-11-19T13:16:40;11.70;99.90
74513;DHT22;62992;52.052;8.550;2023-11-19T13:19:25;11.60;99.90
74513;DHT22;62992;52.052;8.550;2023-11-19T13:22:10;11.60;99.90
74513;DHT22;62992;52.052;8.550;2023-11-19T13:24:54;11.50;99.90
74513;DHT22;62992;52.052;8.550;2023-11-19T13:27:38;11.60;99.90
74513;DHT22;62992;52.052;8.550;2023-11-19T13:30:22;11.60;99.90
74513;DHT22;62992;52.052;8.550;2023-11-19T13:33:06;11.70;99.90
74513;DHT22;62992;52.052;8.550;2023-11-19T13:35:50;11.70;99.90
74513;DHT22;62992;52.052;8.550;2023-11-19T13:38:35;11.70;99.90
74513;DHT22;62992;52.052;8.550;2023-11-19T13:41:19;11.90;99.90
74513;DHT22;62992;52.052;8.550;2023-11-19T13:44:04;11.90;99.90
74513;DHT22;62992;52.052;8.550;2023-11-19T13:46:48;11.80;99.90
74513;DHT22;62992;52.052;8.550;2023-11-19T13:49:32;11.90;99.90
74513;DHT22;62992;52.052;8.550;2023-11-19T13:52:17;11.80;99.90
74513;DHT22;62992;52.052;8.550;2023-11-19T13:55:01;11.80;99.90
74513;DHT22;62992;52.052;8.550;2023-11-19T13:57:45;11.70;99.90
74513;DHT22;62992;52.052;8.550;2023-11-19T14:00:30;11.60;99.90
74513;DHT22;62992;52.052;8.550;2023-11-19T14:03:14;11.50;99.90
74513;DHT22;62992;52.052;8.550;2023-11-19T14:05:58;11.60;99.90
74513;DHT22;62992;52.052;8.550;2023-11-19T14:08:43;11.50;99.90
74513;DHT22;62992;52.052;8.550;2023-11-19T14:11:27;11.50;99.90
74513;DHT22;62992;52.052;8.550;2023-11-19T14:14:11;11.50;99.90
74513;DHT22;62992;52.052;8.550;2023-11-19T14:16:55;11.50;99.90
74513;DHT22;62992;52.052;8.550;2023-11-19T14:19:40;11.50;99.90
74513;DHT22;62992;52.052;8.550;2023-11-19T14:22:25;11.50;99.90
74513;DHT22;62992;52.052;8.550;2023-11-19T14:25:09;11.40;99.90
74513;DHT22;62992;52.052;8.550;2023-11-19T14:27:54;11.50;99.90
74513;DHT22;62992;52.052;8.550;2023-11-19T14:30:38;11.50;99.90
74513;DHT22;62992;52.052;8.550;2023-11-19T14:33:22;11.50;99.90
74513;DHT22;62992;52.052;8.550;2023-11-19T14:36:06;11.50;99.90
74513;DHT22;62992;52.052;8.550;2023-11-19T14:38:51;11.50;99.90
74513;DHT22;62992;52.052;8.550;2023-11-19T14:41:35;11.50;99.90
74513;DHT22;62992;52.052;8.550;2023-11-19T14:44:19;11.50;99.90
74513;DHT22;62992;52.052;8.550;2023-11-19T14:47:04;11.50;99.90
74513;DHT22;62992;52.052;8.550;2023-11-19T14:49:48;11.60;99.90
74513;DHT22;62992;52.052;8.550;2023-11-19T14:52:34;11.50;99.90
74513;DHT22;62992;52.052;8.550;2023-11-19T14:55:18;11.50;99.90
74513;DHT22;62992;52.052;8.550;2023-11-19T14:58:02;11.60;99.90
74513;DHT22;62992;52.052;8.550;2023-11-19T15:00:46;11.50;99.90
74513;DHT22;62992;52.052;8.550;2023-11-19T15:03:31;11.40;99.90
74513;DHT22;62992;52.052;8.550;2023-11-19T15:06:15;11.30;99.90
74513;DHT22;62992;52.052;8.550;2023-11-19T15:08:59;11.20;99.90
74513;DHT22;62992;52.052;8.550;2023-11-19T15:11:43;11.20;99.90
74513;DHT22;62992;52.052;8.550;2023-11-19T15:14:29;11.10;99.90
74513;DHT22;62992;52.052;8.550;2023-11-19T15:17:14;11.20;99.90
74513;DHT22;62992;52.052;8.550;2023-11-19T15:19:58;11.20;99.90
74513;DHT22;62992;52.052;8.550;2023-11-19T15:22:43;11.10;99.90
74513;DHT22;62992;52.052;8.550;2023-11-19T15:25:27;11.10;99.90
74513;DHT22;62992;52.052;8.550;2023-11-19T15:28:11;11.20;99.90
74513;DHT22;62992;52.052;8.550;2023-11-19T15:30:55;11.20;99.90
74513;DHT22;62992;52.052;8.550;2023-11-19T15:33:39;11.20;99.90
74513;DHT22;62992;52.052;8.550;2023-11-19T15:36:24;11.20;99.90
74513;DHT22;62992;52.052;8.550;2023-11-19T15:39:08;11.20;99.90
74513;DHT22;62992;52.052;8.550;2023-11-19T15:41:52;11.20;99.90
74513;DHT22;62992;52.052;8.550;2023-11-19T15:44:37;11.20;99.90
74513;DHT22;62992;52.052;8.550;2023-11-19T15:47:21;11.10;99.90
74513;DHT22;62992;52.052;8.550;2023-11-19T15:50:06;11.10;99.90
74513;DHT22;62992;52.052;8.550;2023-11-19T15:52:51;11.10;99.90
74513;DHT22;62992;52.052;8.550;2023-11-19T15:55:35;11.20;99.90
74513;DHT22;62992;52.052;8.550;2023-11-19T15:58:19;11.20;99.90
74513;DHT22;62992;52.052;8.550;2023-11-19T16:01:03;11.10;99.90
74513;DHT22;62992;52.052;8.550;2023-11-19T16:03:48;11.20;99.90
74513;DHT22;62992;52.052;8.550;2023-11-19T16:06:32;11.20;99.90
74513;DHT22;62992;52.052;8.550;2023-11-19T16:09:18;11.20;99.90
74513;DHT22;62992;52.052;8.550;2023-11-19T16:12:03;11.10;99.90
74513;DHT22;62992;52.052;8.550;2023-11-19T16:14:47;11.00;99.90
74513;DHT22;62992;52.052;8.550;2023-11-19T16:17:31;10.90;99.90
74513;DHT22;62992;52.052;8.550;2023-11-19T16:20:15;10.80;99.90
74513;DHT22;62992;52.052;8.550;2023-11-19T16:23:00;10.70;99.90
74513;DHT22;62992;52.052;8.550;2023-11-19T16:25:44;10.60;99.90
74513;DHT22;62992;52.052;8.550;2023-11-19T16:28:28;10.60;99.90
74513;DHT22;62992;52.052;8.550;2023-11-19T16:31:12;10.60;99.90
74513;DHT22;62992;52.052;8.550;2023-11-19T16:33:57;10.60;99.90
74513;DHT22;62992;52.052;8.550;2023-11-19T16:36:41;10.50;99.90
74513;DHT22;62992;52.052;8.550;2023-11-19T16:39:25;10.60;99.90
74513;DHT22;62992;52.052;8.550;2023-11-19T16:42:09;10.50;99.90
74513;DHT22;62992;52.052;8.550;2023-11-19T16:44:53;10.50;99.90
74513;DHT22;62992;52.052;8.550;2023-11-19T16:47:38;10.50;99.90
74513;DHT22;62992;52.052;8.550;2023-11-19T16:50:22;10.50;99.90
74513;DHT22;62992;52.052;8.550;2023-11-19T16:53:06;10.50;99.90
74513;DHT22;62992;52.052;8.550;2023-11-19T16:55:50;10.50;99.90
74513;DHT22;62992;52.052;8.550;2023-11-19T16:58:34;10.50;99.90
74513;DHT22;62992;52.052;8.550;2023-11-19T17:01:19;10.50;99.90
74513;DHT22;62992;52.052;8.550;2023-11-19T17:04:04;10.50;99.90
74513;DHT22;62992;52.052;8.550;2023-11-19T17:06:48;10.50;99.90
74513;DHT22;62992;52.052;8.550;2023-11-19T17:09:33;10.50;99.90
74513;DHT22;62992;52.052;8.550;2023-11-19T17:12:16;10.50;99.90
74513;DHT22;62992;52.052;8.550;2023-11-19T17:15:01;10.50;99.90
74513;DHT22;62992;52.052;8.550;2023-11-19T17:17:48;10.50;99.90
74513;DHT22;62992;52.052;8.550;2023-11-19T17:20:32;10.60;99.90
74513;DHT22;62992;52.052;8.550;2023-11-19T17:23:21;10.60;99.90
74513;DHT22;62992;52.052;8.550;2023-11-19T17:26:05;10.60;99.90
74513;DHT22;62992;52.052;8.550;2023-11-19T17:28:49;10.60;99.90
74513;DHT22;62992;52.052;8.550;2023-11-19T17:31:33;10.70;99.90
74513;DHT22;62992;52.052;8.550;2023-11-19T17:34:18;10.70;99.90
74513;DHT22;62992;52.052;8.550;2023-11-19T17:37:05;10.70;99.90
74513;DHT22;62992;52.052;8.550;2023-11-19T17:39:49;10.70;99.90
74513;DHT22;62992;52.052;8.550;2023-11-19T17:42:33;10.70;99.90